sensor_id;sensor_type;location;lat;lon;timestamp;temperature;humidity
15262;DHT22;7733;51.554;13.590;2023-03-31T00:01:33;10.40;99.90
15262;DHT22;7733;51.554;13.590;2023-03-31T00:04:00;10.40;99.90
15262;DHT22;7733;51.554;13.590;2023-03-31T00:06:30;10.40;99.90
15262;DHT22;7733;51.554;13.590;2023-03-31T00:09:04;10.40;99.90
15262;DHT22;7733;51.554;13.590;2023-03-31T00:11:31;10.40;99.90
15262;DHT22;7733;51.554;13.590;2023-03-31T00:13:56;10.40;99.90
15262;DHT22;7733;51.554;13.590;2023-03-31T00:16:22;10.40;99.90
15262;DHT22;7733;51.554;13.590;2023-03-31T00:18:48;10.40;99.90
15262;DHT22;7733;51.554;13.590;2023-03-31T00:21:17;10.40;99.90
15262;DHT22;7733;51.554;13.590;2023-03-31T00:23:56;10.40;99.90
15262;DHT22;7733;51.554;13.590;2023-03-31T00:26:27;10.40;99.90
15262;DHT22;7733;51.554;13.590;2023-03-31T00:28:54;10.50;99.90
15262;DHT22;7733;51.554;13.590;2023-03-31T00:31:21;10.50;99.90
15262;DHT22;7733;51.554;13.590;2023-03-31T00:33:48;10.40;99.90
15262;DHT22;7733;51.554;13.590;2023-03-31T00:36:15;10.50;99.90
15262;DHT22;7733;51.554;13.590;2023-03-31T00:38:49;10.50;99.90
15262;DHT22;7733;51.554;13.590;2023-03-31T00:41:16;10.50;99.90
15262;DHT22;7733;51.554;13.590;2023-03-31T00:46:45;10.50;99.90
15262;DHT22;7733;51.554;13.590;2023-03-31T00:49:38;10.60;99.90
15262;DHT22;7733;51.554;13.590;2023-03-31T00:52:29;10.60;99.90
15262;DHT22;7733;51.554;13.590;2023-03-31T00:55:07;10.60;99.90
15262;DHT22;7733;51.554;13.590;2023-03-31T00:57:37;10.60;99.90
15262;DHT22;7733;51.554;13.590;2023-03-31T01:00:09;10.70;99.90
15262;DHT22;7733;51.554;13.590;2023-03-31T01:02:47;10.70;99.90
15262;DHT22;7733;51.554;13.590;2023-03-31T01:05:26;10.70;99.90
15262;DHT22;7733;51.554;13.590;2023-03-31T01:07:57;10.70;99.90
15262;DHT22;7733;51.554;13.590;2023-03-31T01:10:25;10.70;99.90
15262;DHT22;7733;51.554;13.590;2023-03-31T01:12:53;10.70;99.90
15262;DHT22;7733;51.554;13.590;2023-03-31T01:15:21;10.80;99.90
15262;DHT22;7733;51.554;13.590;2023-03-31T01:17:47;10.80;99.90
15262;DHT22;7733;51.554;13.590;2023-03-31T01:31:38;10.80;99.90
15262;DHT22;7733;51.554;13.590;2023-03-31T01:43:55;10.80;99.90
15262;DHT22;7733;51.554;13.590;2023-03-31T01:46:40;10.80;99.90
15262;DHT22;7733;51.554;13.590;2023-03-31T01:55:13;10.70;99.90
15262;DHT22;7733;51.554;13.590;2023-03-31T01:57:47;10.70;99.90
15262;DHT22;7733;51.554;13.590;2023-03-31T02:00:22;10.70;99.90
15262;DHT22;7733;51.554;13.590;2023-03-31T02:03:00;10.70;99.90
15262;DHT22;7733;51.554;13.590;2023-03-31T02:05:39;10.70;99.90
15262;DHT22;7733;51.554;13.590;2023-03-31T02:08:25;10.70;99.90
15262;DHT22;7733;51.554;13.590;2023-03-31T02:10:57;10.70;99.90
15262;DHT22;7733;51.554;13.590;2023-03-31T02:13:26;10.70;99.90
15262;DHT22;7733;51.554;13.590;2023-03-31T02:16:01;10.70;99.90
15262;DHT22;7733;51.554;13.590;2023-03-31T02:18:34;10.70;99.90
15262;DHT22;7733;51.554;13.590;2023-03-31T02:21:04;10.60;99.90
15262;DHT22;7733;51.554;13.590;2023-03-31T02:23:32;10.60;99.90
15262;DHT22;7733;51.554;13.590;2023-03-31T02:28:39;10.50;99.90
15262;DHT22;7733;51.554;13.590;2023-03-31T02:34:07;10.40;99.90
15262;DHT22;7733;51.554;13.590;2023-03-31T02:36:34;10.40;99.90
15262;DHT22;7733;51.554;13.590;2023-03-31T02:39:12;10.40;99.90
15262;DHT22;7733;51.554;13.590;2023-03-31T02:41:43;10.30;99.90
15262;DHT22;7733;51.554;13.590;2023-03-31T02:44:10;10.20;99.90
15262;DHT22;7733;51.554;13.590;2023-03-31T02:46:36;10.30;99.90
15262;DHT22;7733;51.554;13.590;2023-03-31T02:49:06;10.20;99.90
15262;DHT22;7733;51.554;13.590;2023-03-31T03:05:31;10.10;99.90
15262;DHT22;7733;51.554;13.590;2023-03-31T03:08:12;10.10;99.90
15262;DHT22;7733;51.554;13.590;2023-03-31T03:14:11;10.20;99.90
15262;DHT22;7733;51.554;13.590;2023-03-31T03:17:04;10.20;99.90
15262;DHT22;7733;51.554;13.590;2023-03-31T03:19:43;10.30;99.90
15262;DHT22;7733;51.554;13.590;2023-03-31T03:22:15;10.30;99.90
15262;DHT22;7733;51.554;13.590;2023-03-31T03:24:40;10.30;99.90
15262;DHT22;7733;51.554;13.590;2023-03-31T03:27:07;10.30;99.90
15262;DHT22;7733;51.554;13.590;2023-03-31T03:29:32;10.30;99.90
15262;DHT22;7733;51.554;13.590;2023-03-31T03:31:58;10.30;99.90
15262;DHT22;7733;51.554;13.590;2023-03-31T03:34:24;10.30;99.90
15262;DHT22;7733;51.554;13.590;2023-03-31T03:36:49;10.30;99.90
15262;DHT22;7733;51.554;13.590;2023-03-31T03:39:16;10.20;99.90
15262;DHT22;7733;51.554;13.590;2023-03-31T03:41:41;10.20;99.90
15262;DHT22;7733;51.554;13.590;2023-03-31T03:44:07;10.20;99.90
15262;DHT22;7733;51.554;13.590;2023-03-31T03:46:33;10.20;99.90
15262;DHT22;7733;51.554;13.590;2023-03-31T03:48:59;10.10;99.90
15262;DHT22;7733;51.554;13.590;2023-03-31T03:51:24;10.10;99.90
15262;DHT22;7733;51.554;13.590;2023-03-31T03:53:50;10.10;99.90
15262;DHT22;7733;51.554;13.590;2023-03-31T03:56:16;10.10;99.90
15262;DHT22;7733;51.554;13.590;2023-03-31T03:58:41;10.20;99.90
15262;DHT22;7733;51.554;13.590;2023-03-31T04:01:07;10.20;99.90
15262;DHT22;7733;51.554;13.590;2023-03-31T04:03:33;10.20;99.90
15262;DHT22;7733;51.554;13.590;2023-03-31T04:05:59;10.20;99.90
15262;DHT22;7733;51.554;13.590;2023-03-31T04:08:24;10.20;99.90
15262;DHT22;7733;51.554;13.590;2023-03-31T04:10:50;10.20;99.90
15262;DHT22;7733;51.554;13.590;2023-03-31T04:13:17;10.20;99.90
15262;DHT22;7733;51.554;13.590;2023-03-31T04:15:44;10.20;99.90
15262;DHT22;7733;51.554;13.590;2023-03-31T04:18:11;10.20;99.90
15262;DHT22;7733;51.554;13.590;2023-03-31T04:20:44;10.20;99.90
15262;DHT22;7733;51.554;13.590;2023-03-31T04:23:10;10.20;99.90
15262;DHT22;7733;51.554;13.590;2023-03-31T04:25:39;10.20;99.90
15262;DHT22;7733;51.554;13.590;2023-03-31T04:28:10;10.20;99.90
15262;DHT22;7733;51.554;13.590;2023-03-31T04:30:39;10.30;99.90
15262;DHT22;7733;51.554;13.590;2023-03-31T04:33:05;10.30;99.90
15262;DHT22;7733;51.554;13.590;2023-03-31T04:35:31;10.30;99.90
15262;DHT22;7733;51.554;13.590;2023-03-31T04:38:23;10.30;99.90
15262;DHT22;7733;51.554;13.590;2023-03-31T04:40:52;10.30;99.90
15262;DHT22;7733;51.554;13.590;2023-03-31T04:43:19;10.30;99.90
15262;DHT22;7733;51.554;13.590;2023-03-31T04:45:46;10.30;99.90
15262;DHT22;7733;51.554;13.590;2023-03-31T04:48:12;10.30;99.90
15262;DHT22;7733;51.554;13.590;2023-03-31T04:50:38;10.30;99.90
15262;DHT22;7733;51.554;13.590;2023-03-31T04:53:04;10.30;99.90
15262;DHT22;7733;51.554;13.590;2023-03-31T04:55:30;10.40;99.90
15262;DHT22;7733;51.554;13.590;2023-03-31T04:57:57;10.40;99.90
15262;DHT22;7733;51.554;13.590;2023-03-31T05:00:23;10.40;99.90
15262;DHT22;7733;51.554;13.590;2023-03-31T05:02:49;10.40;99.90
15262;DHT22;7733;51.554;13.590;2023-03-31T05:05:16;10.40;99.90
15262;DHT22;7733;51.554;13.590;2023-03-31T05:07:41;10.40;99.90
15262;DHT22;7733;51.554;13.590;2023-03-31T05:10:07;10.40;99.90
15262;DHT22;7733;51.554;13.590;2023-03-31T05:12:37;10.50;99.90
15262;DHT22;7733;51.554;13.590;2023-03-31T05:15:04;10.50;99.90
15262;DHT22;7733;51.554;13.590;2023-03-31T05:17:32;10.50;99.90
15262;DHT22;7733;51.554;13.590;2023-03-31T05:19:59;10.60;99.90
15262;DHT22;7733;51.554;13.590;2023-03-31T05:22:26;10.60;99.90
15262;DHT22;7733;51.554;13.590;2023-03-31T05:24:52;10.60;99.90
15262;DHT22;7733;51.554;13.590;2023-03-31T05:27:18;10.60;99.90
15262;DHT22;7733;51.554;13.590;2023-03-31T05:29:46;10.60;99.90
15262;DHT22;7733;51.554;13.590;2023-03-31T05:32:12;10.70;99.90
15262;DHT22;7733;51.554;13.590;2023-03-31T05:34:37;10.70;99.90
15262;DHT22;7733;51.554;13.590;2023-03-31T05:37:03;10.70;99.90
15262;DHT22;7733;51.554;13.590;2023-03-31T05:39:29;10.70;99.90
15262;DHT22;7733;51.554;13.590;2023-03-31T05:42:00;10.80;99.90
15262;DHT22;7733;51.554;13.590;2023-03-31T05:44:26;10.80;99.90
15262;DHT22;7733;51.554;13.590;2023-03-31T05:46:52;10.90;99.90
15262;DHT22;7733;51.554;13.590;2023-03-31T05:49:19;10.90;99.90
15262;DHT22;7733;51.554;13.590;2023-03-31T05:51:45;10.90;99.90
15262;DHT22;7733;51.554;13.590;2023-03-31T05:54:11;10.90;99.90
15262;DHT22;7733;51.554;13.590;2023-03-31T05:56:37;10.90;99.90
15262;DHT22;7733;51.554;13.590;2023-03-31T05:59:03;11.00;99.90
15262;DHT22;7733;51.554;13.590;2023-03-31T06:01:28;11.00;99.90
15262;DHT22;7733;51.554;13.590;2023-03-31T06:03:55;11.00;99.90
15262;DHT22;7733;51.554;13.590;2023-03-31T06:06:21;11.10;99.90
15262;DHT22;7733;51.554;13.590;2023-03-31T06:08:47;11.10;99.90
15262;DHT22;7733;51.554;13.590;2023-03-31T06:11:18;11.10;99.90
15262;DHT22;7733;51.554;13.590;2023-03-31T06:13:46;11.10;99.90
15262;DHT22;7733;51.554;13.590;2023-03-31T06:16:14;11.20;99.90
15262;DHT22;7733;51.554;13.590;2023-03-31T06:18:44;11.20;99.90
15262;DHT22;7733;51.554;13.590;2023-03-31T06:21:15;11.20;99.90
15262;DHT22;7733;51.554;13.590;2023-03-31T06:23:43;11.20;99.90
15262;DHT22;7733;51.554;13.590;2023-03-31T06:26:17;11.30;99.90
15262;DHT22;7733;51.554;13.590;2023-03-31T06:28:45;11.20;99.90
15262;DHT22;7733;51.554;13.590;2023-03-31T06:31:13;11.30;99.90
15262;DHT22;7733;51.554;13.590;2023-03-31T06:33:42;11.30;99.90
15262;DHT22;7733;51.554;13.590;2023-03-31T06:36:09;11.40;99.90
15262;DHT22;7733;51.554;13.590;2023-03-31T06:38:37;11.40;99.90
15262;DHT22;7733;51.554;13.590;2023-03-31T06:41:04;11.40;99.90
15262;DHT22;7733;51.554;13.590;2023-03-31T06:43:31;11.40;99.90
15262;DHT22;7733;51.554;13.590;2023-03-31T06:45:57;11.50;99.90
15262;DHT22;7733;51.554;13.590;2023-03-31T06:48:23;11.50;99.90
15262;DHT22;7733;51.554;13.590;2023-03-31T06:50:50;11.60;99.90
15262;DHT22;7733;51.554;13.590;2023-03-31T06:53:18;11.60;99.90
15262;DHT22;7733;51.554;13.590;2023-03-31T06:55:44;11.60;99.90
15262;DHT22;7733;51.554;13.590;2023-03-31T06:58:09;11.70;99.90
15262;DHT22;7733;51.554;13.590;2023-03-31T07:00:36;11.70;99.90
15262;DHT22;7733;51.554;13.590;2023-03-31T07:03:03;11.70;99.90
15262;DHT22;7733;51.554;13.590;2023-03-31T07:05:29;11.80;99.90
15262;DHT22;7733;51.554;13.590;2023-03-31T07:07:57;11.80;99.90
15262;DHT22;7733;51.554;13.590;2023-03-31T07:10:28;11.90;99.90
15262;DHT22;7733;51.554;13.590;2023-03-31T07:12:55;11.90;99.90
15262;DHT22;7733;51.554;13.590;2023-03-31T07:15:22;11.90;99.90
15262;DHT22;7733;51.554;13.590;2023-03-31T07:17:49;12.00;99.90
15262;DHT22;7733;51.554;13.590;2023-03-31T07:20:17;12.10;99.90
15262;DHT22;7733;51.554;13.590;2023-03-31T07:22:44;12.10;99.90
15262;DHT22;7733;51.554;13.590;2023-03-31T07:25:15;12.20;99.90
15262;DHT22;7733;51.554;13.590;2023-03-31T07:27:42;12.10;99.90
15262;DHT22;7733;51.554;13.590;2023-03-31T07:30:17;12.10;99.90
15262;DHT22;7733;51.554;13.590;2023-03-31T07:32:48;12.10;99.90
15262;DHT22;7733;51.554;13.590;2023-03-31T07:35:15;12.00;99.90
15262;DHT22;7733;51.554;13.590;2023-03-31T07:37:44;12.00;99.90
15262;DHT22;7733;51.554;13.590;2023-03-31T07:40:21;12.00;99.90
15262;DHT22;7733;51.554;13.590;2023-03-31T07:42:49;11.90;99.90
15262;DHT22;7733;51.554;13.590;2023-03-31T07:45:17;11.90;99.90
15262;DHT22;7733;51.554;13.590;2023-03-31T07:47:48;11.90;99.90
15262;DHT22;7733;51.554;13.590;2023-03-31T07:50:14;12.00;99.90
15262;DHT22;7733;51.554;13.590;2023-03-31T07:52:41;12.00;99.90
15262;DHT22;7733;51.554;13.590;2023-03-31T07:55:08;12.10;99.90
15262;DHT22;7733;51.554;13.590;2023-03-31T07:57:35;12.10;99.90
15262;DHT22;7733;51.554;13.590;2023-03-31T08:00:03;12.10;99.90
15262;DHT22;7733;51.554;13.590;2023-03-31T08:02:33;12.20;99.90
15262;DHT22;7733;51.554;13.590;2023-03-31T08:04:59;12.20;99.90
15262;DHT22;7733;51.554;13.590;2023-03-31T08:07:25;12.20;99.90
15262;DHT22;7733;51.554;13.590;2023-03-31T08:09:55;12.30;99.90
15262;DHT22;7733;51.554;13.590;2023-03-31T08:12:22;12.30;99.90
15262;DHT22;7733;51.554;13.590;2023-03-31T08:14:47;12.40;99.90
15262;DHT22;7733;51.554;13.590;2023-03-31T08:17:13;12.40;99.90
15262;DHT22;7733;51.554;13.590;2023-03-31T08:19:39;12.50;99.90
15262;DHT22;7733;51.554;13.590;2023-03-31T08:22:04;12.60;99.90
15262;DHT22;7733;51.554;13.590;2023-03-31T08:24:30;12.70;99.90
15262;DHT22;7733;51.554;13.590;2023-03-31T08:26:56;12.80;99.90
15262;DHT22;7733;51.554;13.590;2023-03-31T08:29:22;13.00;99.90
15262;DHT22;7733;51.554;13.590;2023-03-31T08:31:47;13.00;99.90
15262;DHT22;7733;51.554;13.590;2023-03-31T08:34:13;13.10;99.90
15262;DHT22;7733;51.554;13.590;2023-03-31T08:36:39;13.20;99.90
15262;DHT22;7733;51.554;13.590;2023-03-31T08:39:05;13.30;99.90
15262;DHT22;7733;51.554;13.590;2023-03-31T08:41:44;13.30;99.90
15262;DHT22;7733;51.554;13.590;2023-03-31T08:44:41;13.40;99.90
15262;DHT22;7733;51.554;13.590;2023-03-31T08:47:32;13.40;99.90
15262;DHT22;7733;51.554;13.590;2023-03-31T08:50:13;13.40;99.90
15262;DHT22;7733;51.554;13.590;2023-03-31T08:52:47;13.50;99.90
15262;DHT22;7733;51.554;13.590;2023-03-31T08:55:27;13.60;99.90
15262;DHT22;7733;51.554;13.590;2023-03-31T08:58:12;13.60;99.90
15262;DHT22;7733;51.554;13.590;2023-03-31T09:12:52;13.60;99.90
15262;DHT22;7733;51.554;13.590;2023-03-31T09:26:33;13.50;99.90
15262;DHT22;7733;51.554;13.590;2023-03-31T09:29:09;13.60;99.90
15262;DHT22;7733;51.554;13.590;2023-03-31T09:31:42;13.70;99.90
15262;DHT22;7733;51.554;13.590;2023-03-31T09:34:18;13.90;99.90
15262;DHT22;7733;51.554;13.590;2023-03-31T09:36:49;13.90;99.90
15262;DHT22;7733;51.554;13.590;2023-03-31T09:39:15;13.80;99.90
15262;DHT22;7733;51.554;13.590;2023-03-31T09:41:44;13.90;99.90
15262;DHT22;7733;51.554;13.590;2023-03-31T09:44:31;13.90;99.90
15262;DHT22;7733;51.554;13.590;2023-03-31T09:47:12;13.90;99.90
15262;DHT22;7733;51.554;13.590;2023-03-31T09:49:45;13.90;99.90
15262;DHT22;7733;51.554;13.590;2023-03-31T09:52:22;13.70;99.90
15262;DHT22;7733;51.554;13.590;2023-03-31T09:54:54;13.70;99.90
15262;DHT22;7733;51.554;13.590;2023-03-31T09:57:32;13.70;99.90
15262;DHT22;7733;51.554;13.590;2023-03-31T10:03:01;13.80;99.90
15262;DHT22;7733;51.554;13.590;2023-03-31T10:05:34;13.80;99.90
15262;DHT22;7733;51.554;13.590;2023-03-31T10:08:28;13.70;99.90
15262;DHT22;7733;51.554;13.590;2023-03-31T10:16:29;13.60;99.90
15262;DHT22;7733;51.554;13.590;2023-03-31T10:19:26;13.60;99.90
15262;DHT22;7733;51.554;13.590;2023-03-31T10:24:24;13.40;99.90
15262;DHT22;7733;51.554;13.590;2023-03-31T10:26:54;13.40;99.90
15262;DHT22;7733;51.554;13.590;2023-03-31T10:29:32;13.20;99.90
15262;DHT22;7733;51.554;13.590;2023-03-31T10:32:24;13.30;99.90
15262;DHT22;7733;51.554;13.590;2023-03-31T10:34:56;13.20;99.90
15262;DHT22;7733;51.554;13.590;2023-03-31T10:37:25;12.90;99.90
15262;DHT22;7733;51.554;13.590;2023-03-31T10:39:59;12.90;99.90
15262;DHT22;7733;51.554;13.590;2023-03-31T10:42:30;12.80;99.90
15262;DHT22;7733;51.554;13.590;2023-03-31T10:47:53;12.70;99.90
15262;DHT22;7733;51.554;13.590;2023-03-31T10:50:31;12.60;99.90
15262;DHT22;7733;51.554;13.590;2023-03-31T10:53:05;12.50;99.90
15262;DHT22;7733;51.554;13.590;2023-03-31T10:59:10;12.50;99.90
15262;DHT22;7733;51.554;13.590;2023-03-31T11:04:47;12.60;99.90
15262;DHT22;7733;51.554;13.590;2023-03-31T11:24:26;12.50;99.90
15262;DHT22;7733;51.554;13.590;2023-03-31T11:27:11;12.50;99.90
15262;DHT22;7733;51.554;13.590;2023-03-31T11:38:34;12.30;99.90
15262;DHT22;7733;51.554;13.590;2023-03-31T11:41:19;12.40;99.90
15262;DHT22;7733;51.554;13.590;2023-03-31T11:43:57;12.40;99.90
15262;DHT22;7733;51.554;13.590;2023-03-31T11:46:41;12.30;99.90
15262;DHT22;7733;51.554;13.590;2023-03-31T11:49:22;12.20;99.90
15262;DHT22;7733;51.554;13.590;2023-03-31T11:52:13;12.30;99.90
15262;DHT22;7733;51.554;13.590;2023-03-31T11:55:17;12.10;99.90
15262;DHT22;7733;51.554;13.590;2023-03-31T11:58:09;12.00;99.90
15262;DHT22;7733;51.554;13.590;2023-03-31T12:01:03;12.00;99.90
15262;DHT22;7733;51.554;13.590;2023-03-31T12:06:20;11.90;99.90
15262;DHT22;7733;51.554;13.590;2023-03-31T12:09:29;11.90;99.90
15262;DHT22;7733;51.554;13.590;2023-03-31T12:12:21;11.80;99.90
15262;DHT22;7733;51.554;13.590;2023-03-31T12:15:28;11.70;99.90
15262;DHT22;7733;51.554;13.590;2023-03-31T12:18:12;11.70;99.90
15262;DHT22;7733;51.554;13.590;2023-03-31T12:20:53;11.60;99.90
15262;DHT22;7733;51.554;13.590;2023-03-31T12:23:32;11.60;99.90
15262;DHT22;7733;51.554;13.590;2023-03-31T12:26:26;11.50;99.90
15262;DHT22;7733;51.554;13.590;2023-03-31T12:29:37;11.50;99.90
15262;DHT22;7733;51.554;13.590;2023-03-31T12:32:20;11.50;99.90
15262;DHT22;7733;51.554;13.590;2023-03-31T12:47:04;11.60;99.90
15262;DHT22;7733;51.554;13.590;2023-03-31T12:49:47;11.50;99.90
15262;DHT22;7733;51.554;13.590;2023-03-31T12:53:02;11.60;99.90
15262;DHT22;7733;51.554;13.590;2023-03-31T12:55:46;11.40;99.90
15262;DHT22;7733;51.554;13.590;2023-03-31T13:01:03;11.40;99.90
15262;DHT22;7733;51.554;13.590;2023-03-31T13:11:57;11.40;99.90
15262;DHT22;7733;51.554;13.590;2023-03-31T13:14:38;11.40;99.90
15262;DHT22;7733;51.554;13.590;2023-03-31T13:17:32;11.30;99.90
15262;DHT22;7733;51.554;13.590;2023-03-31T13:25:45;11.30;99.90
15262;DHT22;7733;51.554;13.590;2023-03-31T13:31:13;11.10;99.90
15262;DHT22;7733;51.554;13.590;2023-03-31T13:34:00;11.10;99.90
15262;DHT22;7733;51.554;13.590;2023-03-31T13:48:48;11.20;99.90
15262;DHT22;7733;51.554;13.590;2023-03-31T13:57:26;11.00;99.90
15262;DHT22;7733;51.554;13.590;2023-03-31T14:06:11;10.90;99.90
15262;DHT22;7733;51.554;13.590;2023-03-31T14:09:08;11.00;99.90
15262;DHT22;7733;51.554;13.590;2023-03-31T14:11:38;11.00;99.90
15262;DHT22;7733;51.554;13.590;2023-03-31T14:16:37;10.90;99.90
15262;DHT22;7733;51.554;13.590;2023-03-31T14:31:30;11.10;99.90
15262;DHT22;7733;51.554;13.590;2023-03-31T14:34:25;11.20;99.90
15262;DHT22;7733;51.554;13.590;2023-03-31T14:37:03;11.20;99.90
15262;DHT22;7733;51.554;13.590;2023-03-31T14:39:35;11.10;99.90
15262;DHT22;7733;51.554;13.590;2023-03-31T14:42:13;11.00;99.90
15262;DHT22;7733;51.554;13.590;2023-03-31T14:44:41;11.10;99.90
15262;DHT22;7733;51.554;13.590;2023-03-31T14:47:23;11.20;99.90
15262;DHT22;7733;51.554;13.590;2023-03-31T14:50:16;11.20;99.90
15262;DHT22;7733;51.554;13.590;2023-03-31T14:52:47;11.20;99.90
15262;DHT22;7733;51.554;13.590;2023-03-31T14:55:16;11.30;99.90
15262;DHT22;7733;51.554;13.590;2023-03-31T14:57:46;11.20;99.90
15262;DHT22;7733;51.554;13.590;2023-03-31T15:00:23;11.40;99.90
15262;DHT22;7733;51.554;13.590;2023-03-31T15:02:51;11.40;99.90
15262;DHT22;7733;51.554;13.590;2023-03-31T15:07:57;11.40;99.90
15262;DHT22;7733;51.554;13.590;2023-03-31T15:10:24;11.40;99.90
15262;DHT22;7733;51.554;13.590;2023-03-31T15:12:54;11.50;99.90
15262;DHT22;7733;51.554;13.590;2023-03-31T15:15:20;11.60;99.90
15262;DHT22;7733;51.554;13.590;2023-03-31T15:17:46;11.80;99.90
15262;DHT22;7733;51.554;13.590;2023-03-31T15:22:56;11.90;99.90
15262;DHT22;7733;51.554;13.590;2023-03-31T15:25:33;12.20;99.90
15262;DHT22;7733;51.554;13.590;2023-03-31T15:28:12;12.30;99.90
15262;DHT22;7733;51.554;13.590;2023-03-31T15:30:41;12.50;99.90
15262;DHT22;7733;51.554;13.590;2023-03-31T15:33:25;12.70;99.90
15262;DHT22;7733;51.554;13.590;2023-03-31T15:35:57;12.70;99.90
15262;DHT22;7733;51.554;13.590;2023-03-31T15:38:26;12.60;99.90
15262;DHT22;7733;51.554;13.590;2023-03-31T15:40:54;12.60;99.90
15262;DHT22;7733;51.554;13.590;2023-03-31T15:46:09;12.40;99.90
15262;DHT22;7733;51.554;13.590;2023-03-31T15:48:51;12.40;99.90
15262;DHT22;7733;51.554;13.590;2023-03-31T15:53:58;12.40;99.90
15262;DHT22;7733;51.554;13.590;2023-03-31T15:58:56;12.20;99.90
15262;DHT22;7733;51.554;13.590;2023-03-31T16:01:27;12.20;99.90
15262;DHT22;7733;51.554;13.590;2023-03-31T16:03:57;12.30;99.90
15262;DHT22;7733;51.554;13.590;2023-03-31T16:06:41;12.20;99.90
15262;DHT22;7733;51.554;13.590;2023-03-31T16:09:15;12.20;99.90
15262;DHT22;7733;51.554;13.590;2023-03-31T16:11:50;12.20;99.90
15262;DHT22;7733;51.554;13.590;2023-03-31T16:14:35;12.10;99.90
15262;DHT22;7733;51.554;13.590;2023-03-31T16:17:13;12.00;99.90
15262;DHT22;7733;51.554;13.590;2023-03-31T16:20:32;12.00;99.90
15262;DHT22;7733;51.554;13.590;2023-03-31T16:22:55;12.00;99.90
15262;DHT22;7733;51.554;13.590;2023-03-31T16:25:29;11.90;99.90
15262;DHT22;7733;51.554;13.590;2023-03-31T16:28:00;11.70;99.90
15262;DHT22;7733;51.554;13.590;2023-03-31T16:30:38;11.60;99.90
15262;DHT22;7733;51.554;13.590;2023-03-31T16:33:07;11.30;99.90
15262;DHT22;7733;51.554;13.590;2023-03-31T16:35:44;11.20;99.90
15262;DHT22;7733;51.554;13.590;2023-03-31T16:38:16;11.20;99.90
15262;DHT22;7733;51.554;13.590;2023-03-31T16:40:44;11.20;99.90
15262;DHT22;7733;51.554;13.590;2023-03-31T16:43:18;11.20;99.90
15262;DHT22;7733;51.554;13.590;2023-03-31T16:45:50;11.10;99.90
15262;DHT22;7733;51.554;13.590;2023-03-31T16:48:23;11.20;99.90
15262;DHT22;7733;51.554;13.590;2023-03-31T16:50:53;11.20;99.90
15262;DHT22;7733;51.554;13.590;2023-03-31T16:53:26;11.30;99.90
15262;DHT22;7733;51.554;13.590;2023-03-31T16:55:54;11.20;99.90
15262;DHT22;7733;51.554;13.590;2023-03-31T16:58:20;11.20;99.90
15262;DHT22;7733;51.554;13.590;2023-03-31T17:00:49;11.10;99.90
15262;DHT22;7733;51.554;13.590;2023-03-31T17:03:15;11.10;99.90
15262;DHT22;7733;51.554;13.590;2023-03-31T17:05:43;10.90;99.90
15262;DHT22;7733;51.554;13.590;2023-03-31T17:08:12;11.00;99.90
15262;DHT22;7733;51.554;13.590;2023-03-31T17:10:40;10.90;99.90
15262;DHT22;7733;51.554;13.590;2023-03-31T17:13:07;10.90;99.90
15262;DHT22;7733;51.554;13.590;2023-03-31T17:15:34;10.90;99.90
15262;DHT22;7733;51.554;13.590;2023-03-31T17:18:00;10.90;99.90
15262;DHT22;7733;51.554;13.590;2023-03-31T17:20:28;10.80;99.90
15262;DHT22;7733;51.554;13.590;2023-03-31T17:22:54;10.70;99.90
15262;DHT22;7733;51.554;13.590;2023-03-31T17:25:21;10.50;99.90
15262;DHT22;7733;51.554;13.590;2023-03-31T17:27:47;10.60;99.90
15262;DHT22;7733;51.554;13.590;2023-03-31T17:30:13;10.50;99.90
15262;DHT22;7733;51.554;13.590;2023-03-31T17:32:39;10.60;99.90
15262;DHT22;7733;51.554;13.590;2023-03-31T17:35:06;10.60;99.90
15262;DHT22;7733;51.554;13.590;2023-03-31T17:37:32;10.40;99.90
15262;DHT22;7733;51.554;13.590;2023-03-31T17:39:58;10.30;99.90
15262;DHT22;7733;51.554;13.590;2023-03-31T17:42:24;10.30;99.90
15262;DHT22;7733;51.554;13.590;2023-03-31T17:44:50;10.20;99.90
15262;DHT22;7733;51.554;13.590;2023-03-31T17:47:18;10.20;99.90
15262;DHT22;7733;51.554;13.590;2023-03-31T17:49:45;10.20;99.90
15262;DHT22;7733;51.554;13.590;2023-03-31T17:52:11;10.10;99.90
15262;DHT22;7733;51.554;13.590;2023-03-31T17:54:38;10.10;99.90
15262;DHT22;7733;51.554;13.590;2023-03-31T17:57:04;10.00;99.90
15262;DHT22;7733;51.554;13.590;2023-03-31T17:59:30;10.00;99.90
15262;DHT22;7733;51.554;13.590;2023-03-31T18:01:56;9.90;99.90
15262;DHT22;7733;51.554;13.590;2023-03-31T18:04:22;10.00;99.90
15262;DHT22;7733;51.554;13.590;2023-03-31T18:06:48;9.90;99.90
15262;DHT22;7733;51.554;13.590;2023-03-31T18:09:14;9.80;99.90
15262;DHT22;7733;51.554;13.590;2023-03-31T18:11:41;9.80;99.90
15262;DHT22;7733;51.554;13.590;2023-03-31T18:14:07;9.80;99.90
15262;DHT22;7733;51.554;13.590;2023-03-31T18:16:33;9.80;99.90
15262;DHT22;7733;51.554;13.590;2023-03-31T18:19:00;9.80;99.90
15262;DHT22;7733;51.554;13.590;2023-03-31T18:21:26;9.80;99.90
15262;DHT22;7733;51.554;13.590;2023-03-31T18:23:52;9.70;99.90
15262;DHT22;7733;51.554;13.590;2023-03-31T18:26:20;9.70;99.90
15262;DHT22;7733;51.554;13.590;2023-03-31T18:28:48;9.60;99.90
15262;DHT22;7733;51.554;13.590;2023-03-31T18:31:15;9.60;99.90
15262;DHT22;7733;51.554;13.590;2023-03-31T18:33:41;9.60;99.90
15262;DHT22;7733;51.554;13.590;2023-03-31T18:36:15;9.60;99.90
15262;DHT22;7733;51.554;13.590;2023-03-31T18:38:45;9.60;99.90
15262;DHT22;7733;51.554;13.590;2023-03-31T18:41:11;9.60;99.90
15262;DHT22;7733;51.554;13.590;2023-03-31T18:43:37;9.60;99.90
15262;DHT22;7733;51.554;13.590;2023-03-31T18:46:03;9.60;99.90
15262;DHT22;7733;51.554;13.590;2023-03-31T18:48:30;9.60;99.90
15262;DHT22;7733;51.554;13.590;2023-03-31T18:50:56;9.60;99.90
15262;DHT22;7733;51.554;13.590;2023-03-31T18:53:23;9.60;99.90
15262;DHT22;7733;51.554;13.590;2023-03-31T18:55:50;9.70;99.90
15262;DHT22;7733;51.554;13.590;2023-03-31T18:58:16;9.70;99.90
15262;DHT22;7733;51.554;13.590;2023-03-31T19:00:42;9.70;99.90
15262;DHT22;7733;51.554;13.590;2023-03-31T19:03:08;9.70;99.90
15262;DHT22;7733;51.554;13.590;2023-03-31T19:05:34;9.80;99.90
15262;DHT22;7733;51.554;13.590;2023-03-31T19:08:00;9.80;99.90
15262;DHT22;7733;51.554;13.590;2023-03-31T19:10:26;9.80;99.90
15262;DHT22;7733;51.554;13.590;2023-03-31T19:12:53;9.80;99.90
15262;DHT22;7733;51.554;13.590;2023-03-31T19:15:20;9.90;99.90
15262;DHT22;7733;51.554;13.590;2023-03-31T19:17:47;9.80;99.90
15262;DHT22;7733;51.554;13.590;2023-03-31T19:20:13;9.90;99.90
15262;DHT22;7733;51.554;13.590;2023-03-31T19:22:46;9.90;99.90
15262;DHT22;7733;51.554;13.590;2023-03-31T19:25:18;10.00;99.90
15262;DHT22;7733;51.554;13.590;2023-03-31T19:27:44;10.10;99.90
15262;DHT22;7733;51.554;13.590;2023-03-31T19:30:18;10.10;99.90